createdAt,value
2023-02-14T00:01:51.958Z,2.70
2023-02-14T00:04:21.701Z,3.20
2023-02-14T00:06:49.346Z,2.33
2023-02-14T00:09:19.287Z,2.50
2023-02-14T00:11:46.512Z,2.45
2023-02-14T00:14:33.187Z,2.80
2023-02-14T00:17:03.625Z,2.80
2023-02-14T00:19:31.878Z,2.80
2023-02-14T00:21:59.183Z,2.90
2023-02-14T00:24:29.314Z,2.90
2023-02-14T00:26:58.935Z,3.00
2023-02-14T00:29:34.923Z,2.65
2023-02-14T00:32:02.799Z,2.80
2023-02-14T00:34:30.244Z,2.88
2023-02-14T00:36:57.367Z,2.85
2023-02-14T00:39:24.857Z,2.60
2023-02-14T00:41:52.023Z,2.95
2023-02-14T00:44:21.446Z,2.63
2023-02-14T00:46:48.971Z,2.35
2023-02-14T00:49:16.184Z,2.67
2023-02-14T00:51:48.223Z,2.72
2023-02-14T00:54:15.521Z,2.67
2023-02-14T00:56:43.224Z,2.58
2023-02-14T00:59:10.387Z,2.88
2023-02-14T01:01:42.302Z,2.58
2023-02-14T01:04:10.248Z,2.63
2023-02-14T01:06:41.408Z,2.70
2023-02-14T01:09:11.206Z,2.67
2023-02-14T01:11:40.460Z,2.65
2023-02-14T01:14:12.010Z,2.53
2023-02-14T01:16:39.773Z,2.78
2023-02-14T01:19:09.558Z,2.78
2023-02-14T01:21:39.288Z,2.72
2023-02-14T01:24:11.287Z,2.70
2023-02-14T01:26:39.602Z,2.35
2023-02-14T01:29:06.758Z,2.65
2023-02-14T01:31:35.469Z,2.38
2023-02-14T01:34:05.201Z,2.60
2023-02-14T01:36:37.294Z,2.30
2023-02-14T01:39:08.450Z,3.13
2023-02-14T01:41:37.475Z,2.58
2023-02-14T01:44:28.075Z,2.70
2023-02-14T01:47:01.214Z,2.70
2023-02-14T01:49:32.564Z,2.92
2023-02-14T01:52:11.718Z,2.30
2023-02-14T01:54:46.411Z,2.70
2023-02-14T01:57:17.785Z,2.45
2023-02-14T01:59:53.643Z,2.50
2023-02-14T02:02:23.976Z,2.30
2023-02-14T02:04:55.675Z,2.53
2023-02-14T02:07:29.135Z,2.63
2023-02-14T02:12:30.701Z,2.70
2023-02-14T02:15:02.787Z,2.47
2023-02-14T02:17:33.332Z,2.65
2023-02-14T02:20:09.460Z,2.72
2023-02-14T02:23:20.564Z,2.80
2023-02-14T02:25:56.607Z,2.45
2023-02-14T02:28:50.135Z,2.60
2023-02-14T02:31:26.522Z,2.53
2023-02-14T02:34:19.022Z,2.42
2023-02-14T02:37:40.639Z,2.60
2023-02-14T02:40:41.266Z,2.70
2023-02-14T02:43:52.062Z,2.53
2023-02-14T02:46:48.734Z,2.60
2023-02-14T02:49:35.980Z,2.70
2023-02-14T02:52:39.172Z,2.70
2023-02-14T02:55:16.087Z,2.60
2023-02-14T02:57:47.493Z,2.60
2023-02-14T03:00:19.185Z,2.80
2023-02-14T03:03:11.259Z,2.78
2023-02-14T03:05:38.722Z,2.60
2023-02-14T03:08:08.416Z,2.78
2023-02-14T03:10:38.625Z,2.40
2023-02-14T03:13:44.040Z,2.38
2023-02-14T03:16:35.171Z,2.58
2023-02-14T03:19:33.114Z,2.58
2023-02-14T03:22:27.581Z,2.42
2023-02-14T03:25:28.375Z,2.58
2023-02-14T03:28:07.535Z,2.83
2023-02-14T03:30:45.850Z,2.75
2023-02-14T03:33:32.225Z,2.72
2023-02-14T03:36:25.390Z,2.53
2023-02-14T03:39:21.803Z,2.88
2023-02-14T03:42:15.040Z,2.30
2023-02-14T03:44:46.548Z,2.80
2023-02-14T03:47:23.170Z,2.75
2023-02-14T03:49:58.249Z,2.67
2023-02-14T03:52:29.121Z,3.40
2023-02-14T03:55:02.282Z,3.65
2023-02-14T04:00:01.733Z,5.55
2023-02-14T04:02:46.643Z,6.30
2023-02-14T04:05:21.362Z,6.50
2023-02-14T04:07:56.791Z,7.72
2023-02-14T04:10:25.176Z,7.47
2023-02-14T04:12:53.086Z,7.53
2023-02-14T04:15:22.315Z,7.97
2023-02-14T04:18:09.519Z,8.77
2023-02-14T04:20:37.261Z,7.85
2023-02-14T04:23:04.954Z,8.50
2023-02-14T04:25:32.183Z,8.00
2023-02-14T04:28:01.968Z,7.78
2023-02-14T04:30:29.326Z,7.53
2023-02-14T04:33:01.253Z,7.55
2023-02-14T04:35:28.776Z,7.72
2023-02-14T04:37:55.928Z,7.80
2023-02-14T04:40:23.128Z,8.30
2023-02-14T04:42:50.647Z,7.72
2023-02-14T04:45:20.003Z,6.72
2023-02-14T04:47:47.561Z,7.10
2023-02-14T04:50:19.780Z,7.78
2023-02-14T04:52:47.065Z,7.30
2023-02-14T04:55:18.941Z,7.20
2023-02-14T04:57:48.748Z,6.93
2023-02-14T05:00:16.638Z,7.43
2023-02-14T05:02:45.012Z,5.90
2023-02-14T05:05:12.497Z,7.20
2023-02-14T05:07:47.488Z,6.60
2023-02-14T05:10:17.145Z,6.05
2023-02-14T05:12:44.627Z,6.00
2023-02-14T05:15:15.130Z,5.70
2023-02-14T05:17:42.496Z,6.53
2023-02-14T05:20:10.194Z,5.65
2023-02-14T05:22:37.642Z,5.47
2023-02-14T05:25:05.022Z,4.68
2023-02-14T05:27:34.807Z,5.70
2023-02-14T05:30:04.694Z,5.50
2023-02-14T05:32:36.844Z,4.97
2023-02-14T05:35:05.132Z,4.80
2023-02-14T05:37:34.561Z,5.45
2023-02-14T05:40:01.880Z,5.05
2023-02-14T05:42:30.423Z,5.05
2023-02-14T05:44:59.706Z,4.93
2023-02-14T05:47:29.410Z,4.78
2023-02-14T05:49:56.746Z,4.43
2023-02-14T05:52:27.488Z,5.03
2023-02-14T05:58:01.157Z,3.90
2023-02-14T06:00:31.076Z,4.05
2023-02-14T06:03:03.143Z,4.22
2023-02-14T06:05:30.586Z,4.00
2023-02-14T06:07:57.822Z,4.05
2023-02-14T06:10:25.791Z,3.90
2023-02-14T06:12:53.572Z,4.32
2023-02-14T06:15:23.654Z,4.45
2023-02-14T06:17:52.919Z,3.60
2023-02-14T06:20:21.216Z,3.78
2023-02-14T06:22:52.052Z,3.97
2023-02-14T06:25:21.004Z,4.03
2023-02-14T06:27:49.471Z,3.83
2023-02-14T06:30:17.843Z,3.70
2023-02-14T06:32:45.451Z,4.20
2023-02-14T06:35:15.244Z,3.83
2023-02-14T06:37:44.225Z,3.17
2023-02-14T06:40:15.101Z,3.90
2023-02-14T06:42:42.623Z,3.25
2023-02-14T06:45:10.429Z,3.90
2023-02-14T06:47:37.672Z,3.97
2023-02-14T06:50:08.610Z,4.22
2023-02-14T06:52:35.854Z,4.10
2023-02-14T06:55:04.374Z,4.10
2023-02-14T06:57:34.165Z,3.35
2023-02-14T07:00:01.295Z,3.83
2023-02-14T07:02:28.674Z,3.90
2023-02-14T07:04:55.899Z,3.50
2023-02-14T07:07:23.241Z,3.72
2023-02-14T07:09:52.655Z,3.67
2023-02-14T07:12:24.532Z,3.60
2023-02-14T07:14:51.827Z,3.17
2023-02-14T07:17:21.248Z,3.80
2023-02-14T07:19:48.447Z,3.33
2023-02-14T07:22:15.565Z,3.58
2023-02-14T07:24:45.145Z,3.30
2023-02-14T07:27:14.696Z,3.45
2023-02-14T07:29:41.844Z,3.90
2023-02-14T07:32:09.303Z,3.58
2023-02-14T07:34:36.729Z,3.63
2023-02-14T07:37:10.038Z,3.28
2023-02-14T07:39:37.115Z,3.90
2023-02-14T07:42:04.507Z,3.10
2023-02-14T07:44:32.794Z,3.58
2023-02-14T07:47:00.014Z,3.20
2023-02-14T07:49:30.080Z,3.13
2023-02-14T07:52:02.215Z,3.53
2023-02-14T07:54:29.957Z,3.50
2023-02-14T07:56:59.680Z,3.17
2023-02-14T07:59:27.336Z,3.10
2023-02-14T08:01:57.437Z,3.30
2023-02-14T08:04:26.128Z,3.47
2023-02-14T08:06:54.769Z,3.17
2023-02-14T08:09:27.068Z,2.92
2023-02-14T08:12:15.439Z,3.50
2023-02-14T08:14:43.747Z,3.20
2023-02-14T08:17:16.265Z,3.17
2023-02-14T08:19:43.671Z,3.83
2023-02-14T08:22:10.875Z,3.17
2023-02-14T08:24:39.189Z,2.75
2023-02-14T08:27:06.622Z,3.00
2023-02-14T08:29:33.892Z,2.95
2023-02-14T08:32:01.293Z,2.88
2023-02-14T08:34:28.825Z,3.42
2023-02-14T08:36:56.179Z,3.58
2023-02-14T08:39:24.133Z,2.92
2023-02-14T08:41:54.038Z,3.53
2023-02-14T08:44:21.696Z,2.88
2023-02-14T08:46:49.091Z,2.85
2023-02-14T08:49:16.463Z,2.70
2023-02-14T08:51:46.145Z,3.38
2023-02-14T08:54:15.159Z,3.30
2023-02-14T08:56:44.681Z,2.88
2023-02-14T08:59:12.272Z,2.90
2023-02-14T09:01:42.020Z,3.05
2023-02-14T09:04:15.111Z,3.28
2023-02-14T09:06:43.148Z,3.10
2023-02-14T09:09:10.578Z,2.92
2023-02-14T09:11:39.971Z,3.00
2023-02-14T09:14:07.300Z,3.28
2023-02-14T09:16:34.727Z,2.90
2023-02-14T09:19:01.968Z,3.17
2023-02-14T09:21:30.577Z,3.42
2023-02-14T09:23:57.810Z,2.78
2023-02-14T09:26:24.904Z,2.92
2023-02-14T09:28:53.193Z,2.90
2023-02-14T09:31:23.532Z,2.90
2023-02-14T09:34:12.748Z,2.83
2023-02-14T09:36:58.461Z,3.10
2023-02-14T09:39:25.684Z,2.95
2023-02-14T09:41:58.670Z,3.20
2023-02-14T09:44:35.447Z,3.50
2023-02-14T09:47:20.825Z,2.70
2023-02-14T09:49:50.659Z,3.15
2023-02-14T09:52:21.685Z,2.78
2023-02-14T09:54:54.653Z,2.65
2023-02-14T09:57:46.630Z,3.00
2023-02-14T10:00:20.793Z,3.22
2023-02-14T10:03:02.012Z,2.80
2023-02-14T10:05:32.440Z,2.85
2023-02-14T10:08:55.589Z,2.88
2023-02-14T10:11:27.091Z,2.45
2023-02-14T10:14:09.646Z,3.10
2023-02-14T10:16:45.841Z,2.70
2023-02-14T10:19:37.539Z,2.95
2023-02-14T10:22:11.961Z,2.53
2023-02-14T10:24:49.525Z,2.70
2023-02-14T10:27:42.248Z,2.78
2023-02-14T10:30:18.556Z,2.70
2023-02-14T10:32:49.181Z,2.53
2023-02-14T10:35:38.586Z,2.67
2023-02-14T10:38:48.513Z,3.03
2023-02-14T10:41:38.804Z,2.75
2023-02-14T10:44:30.395Z,2.65
2023-02-14T10:47:09.823Z,2.53
2023-02-14T10:49:47.042Z,2.55
2023-02-14T10:52:23.442Z,2.97
2023-02-14T10:54:59.862Z,3.17
2023-02-14T10:57:40.900Z,2.70
2023-02-14T11:00:37.801Z,2.90
2023-02-14T11:03:09.493Z,3.08
2023-02-14T11:05:46.439Z,3.50
2023-02-14T11:08:35.200Z,3.08
2023-02-14T11:11:27.659Z,3.58
2023-02-14T11:13:55.101Z,3.65
2023-02-14T11:16:36.857Z,4.13
2023-02-14T11:19:20.049Z,4.20
2023-02-14T11:21:51.312Z,4.15
2023-02-14T11:24:28.195Z,4.55
2023-02-14T11:27:21.727Z,4.63
2023-02-14T11:29:52.966Z,4.72
2023-02-14T11:32:25.719Z,4.43
2023-02-14T11:35:07.116Z,5.43
2023-02-14T11:37:43.266Z,4.72
2023-02-14T11:40:27.531Z,5.40
2023-02-14T11:43:12.776Z,5.20
2023-02-14T11:45:46.551Z,5.70
2023-02-14T11:48:19.994Z,5.00
2023-02-14T11:51:15.634Z,4.72
2023-02-14T11:54:00.558Z,5.18
2023-02-14T11:56:46.323Z,5.97
2023-02-14T11:59:28.015Z,6.45
2023-02-14T12:01:57.996Z,4.93
2023-02-14T12:04:45.713Z,5.68
2023-02-14T12:07:18.469Z,5.88
2023-02-14T12:10:07.838Z,5.50
2023-02-14T12:12:40.025Z,5.65
2023-02-14T12:15:28.261Z,5.93
2023-02-14T12:18:25.091Z,5.15
2023-02-14T12:20:59.843Z,5.43
2023-02-14T12:23:31.730Z,5.18
2023-02-14T12:26:13.515Z,5.18
2023-02-14T12:28:47.633Z,5.13
2023-02-14T12:31:18.852Z,5.47
2023-02-14T12:33:47.509Z,5.68
2023-02-14T12:36:43.550Z,5.43
2023-02-14T12:39:54.433Z,5.85
2023-02-14T12:42:27.576Z,5.55
2023-02-14T12:48:04.962Z,5.25
2023-02-14T12:50:49.350Z,4.95
2023-02-14T12:53:31.178Z,5.40
2023-02-14T12:56:18.970Z,5.85
2023-02-14T12:59:01.951Z,6.18
2023-02-14T13:04:35.920Z,5.38
2023-02-14T13:07:43.614Z,5.70
2023-02-14T13:10:18.961Z,5.78
2023-02-14T13:12:59.122Z,5.30
2023-02-14T13:15:42.881Z,5.50
2023-02-14T13:18:10.112Z,5.97
2023-02-14T13:20:48.077Z,5.95
2023-02-14T13:23:24.384Z,5.82
2023-02-14T13:26:14.891Z,5.80
2023-02-14T13:28:58.447Z,5.55
2023-02-14T13:34:57.806Z,5.90
2023-02-14T13:37:27.455Z,6.40
2023-02-14T13:39:58.263Z,5.22
2023-02-14T13:42:54.955Z,5.57
2023-02-14T13:45:50.580Z,6.00
2023-02-14T13:48:23.092Z,5.93
2023-02-14T13:50:53.614Z,5.80
2023-02-14T13:53:37.655Z,5.65
2023-02-14T13:56:32.609Z,6.07
2023-02-14T13:59:05.922Z,5.43
2023-02-14T14:01:41.781Z,6.20
2023-02-14T14:04:28.021Z,6.50
2023-02-14T14:07:07.189Z,5.15
2023-02-14T14:09:40.369Z,5.20
2023-02-14T14:12:29.081Z,5.15
2023-02-14T14:15:05.916Z,5.30
2023-02-14T14:21:28.589Z,5.00
2023-02-14T14:24:22.583Z,4.47
2023-02-14T14:26:58.462Z,4.70
2023-02-14T14:29:31.486Z,3.63
2023-02-14T14:32:18.223Z,4.32
2023-02-14T14:35:01.043Z,4.88
2023-02-14T14:37:48.806Z,4.07
2023-02-14T14:40:45.439Z,4.25
2023-02-14T14:43:21.665Z,3.63
2023-02-14T14:45:52.566Z,3.72
2023-02-14T14:48:40.379Z,4.00
2023-02-14T14:51:20.043Z,4.03
2023-02-14T14:54:03.298Z,4.43
2023-02-14T14:59:35.646Z,4.47
2023-02-14T15:02:26.478Z,5.53
2023-02-14T15:04:53.927Z,4.82
2023-02-14T15:07:33.241Z,4.82
2023-02-14T15:10:05.739Z,5.10
2023-02-14T15:12:53.384Z,4.15
2023-02-14T15:15:22.246Z,4.45
2023-02-14T15:17:51.753Z,4.03
2023-02-14T15:20:23.520Z,4.20
2023-02-14T15:22:53.108Z,4.53
2023-02-14T15:25:30.550Z,4.07
2023-02-14T15:27:58.317Z,4.15
2023-02-14T15:30:37.701Z,4.38
2023-02-14T15:33:07.879Z,4.25
2023-02-14T15:35:42.127Z,4.47
2023-02-14T15:38:15.042Z,4.00
2023-02-14T15:40:45.961Z,4.20
2023-02-14T15:43:19.500Z,4.35
2023-02-14T15:45:52.913Z,4.13
2023-02-14T15:48:34.186Z,3.85
2023-02-14T15:51:06.366Z,3.90
2023-02-14T15:53:43.698Z,4.03
2023-02-14T15:56:30.424Z,4.18
2023-02-14T15:59:04.702Z,3.42
2023-02-14T16:01:34.167Z,3.55
2023-02-14T16:04:06.432Z,3.85
2023-02-14T16:06:46.802Z,3.33
2023-02-14T16:09:30.682Z,3.42
2023-02-14T16:11:57.805Z,3.23
2023-02-14T16:14:35.236Z,3.45
2023-02-14T16:17:11.118Z,3.03
2023-02-14T16:19:46.364Z,3.40
2023-02-14T16:22:31.947Z,3.13
2023-02-14T16:25:01.589Z,3.38
2023-02-14T16:27:30.955Z,3.40
2023-02-14T16:30:00.902Z,3.50
2023-02-14T16:32:28.313Z,3.33
2023-02-14T16:34:55.658Z,3.53
2023-02-14T16:37:31.525Z,3.33
2023-02-14T16:40:00.778Z,3.05
2023-02-14T16:42:32.698Z,3.20
2023-02-14T16:45:00.314Z,3.15
2023-02-14T16:47:27.749Z,3.20
2023-02-14T16:49:57.751Z,3.13
2023-02-14T16:52:29.826Z,2.65
2023-02-14T16:54:57.308Z,2.88
2023-02-14T16:57:30.735Z,3.17
2023-02-14T17:00:02.006Z,3.38
2023-02-14T17:02:36.586Z,3.00
2023-02-14T17:05:09.558Z,3.05
2023-02-14T17:07:41.566Z,3.15
2023-02-14T17:10:16.876Z,2.75
2023-02-14T17:12:48.658Z,2.85
2023-02-14T17:15:21.528Z,3.10
2023-02-14T17:17:49.912Z,3.67
2023-02-14T17:20:22.072Z,3.38
2023-02-14T17:22:49.356Z,4.13
2023-02-14T17:25:18.824Z,3.75
2023-02-14T17:27:48.294Z,3.10
2023-02-14T17:30:18.761Z,4.47
2023-02-14T17:32:46.058Z,4.50
2023-02-14T17:35:14.428Z,5.10
2023-02-14T17:37:42.626Z,5.55
2023-02-14T17:40:15.024Z,6.53
2023-02-14T17:42:42.540Z,6.80
2023-02-14T17:45:12.388Z,7.35
2023-02-14T17:47:40.897Z,5.95
2023-02-14T17:50:08.437Z,6.53
2023-02-14T17:52:37.972Z,6.05
2023-02-14T17:55:06.455Z,6.90
2023-02-14T17:57:33.563Z,7.28
2023-02-14T18:00:01.942Z,7.28
2023-02-14T18:02:33.978Z,7.70
2023-02-14T18:05:01.295Z,6.88
2023-02-14T18:07:28.892Z,6.75
2023-02-14T18:10:00.470Z,7.80
2023-02-14T18:12:27.664Z,7.00
2023-02-14T18:14:56.089Z,6.80
2023-02-14T18:17:28.045Z,6.97
2023-02-14T18:19:55.288Z,7.28
2023-02-14T18:22:22.795Z,6.38
2023-02-14T18:24:52.454Z,6.32
2023-02-14T18:27:19.595Z,6.57
2023-02-14T18:29:51.184Z,7.22
2023-02-14T18:32:18.372Z,7.57
2023-02-14T18:34:45.538Z,8.82
2023-02-14T18:37:13.761Z,9.05
2023-02-14T18:39:41.487Z,8.35
2023-02-14T18:42:10.622Z,7.47
2023-02-14T18:44:57.029Z,7.22
2023-02-14T18:47:32.280Z,7.07
2023-02-14T18:50:02.388Z,7.55
2023-02-14T18:52:33.859Z,7.30
2023-02-14T18:55:07.129Z,7.13
2023-02-14T18:57:37.479Z,7.05
2023-02-14T19:00:06.706Z,7.30
2023-02-14T19:02:37.241Z,7.55
2023-02-14T19:05:04.988Z,6.72
2023-02-14T19:07:35.716Z,7.32
2023-02-14T19:10:04.723Z,6.25
2023-02-14T19:12:34.905Z,7.25
2023-02-14T19:15:03.337Z,5.97
2023-02-14T19:17:30.784Z,6.25
2023-02-14T19:20:00.294Z,6.00
2023-02-14T19:22:27.888Z,6.15
2023-02-14T19:24:55.684Z,5.47
2023-02-14T19:27:23.845Z,5.93
2023-02-14T19:29:51.881Z,6.38
2023-02-14T19:32:19.139Z,6.50
2023-02-14T19:34:49.072Z,6.03
2023-02-14T19:37:16.778Z,6.57
2023-02-14T19:39:43.911Z,6.32
2023-02-14T19:42:11.384Z,6.57
2023-02-14T19:44:43.590Z,6.03
2023-02-14T19:47:28.760Z,5.85
2023-02-14T19:49:58.584Z,5.80
2023-02-14T19:52:28.051Z,5.88
2023-02-14T19:54:55.837Z,5.75
2023-02-14T19:57:23.229Z,6.75
2023-02-14T19:59:50.894Z,6.78
2023-02-14T20:02:19.827Z,6.95
2023-02-14T20:04:50.113Z,6.40
2023-02-14T20:07:17.506Z,6.68
2023-02-14T20:09:44.853Z,6.65
2023-02-14T20:12:11.975Z,6.50
2023-02-14T20:14:50.824Z,6.63
2023-02-14T20:17:19.396Z,6.53
2023-02-14T20:19:46.643Z,7.05
2023-02-14T20:22:14.128Z,6.65
2023-02-14T20:24:44.179Z,6.63
2023-02-14T20:27:15.124Z,6.35
2023-02-14T20:29:45.472Z,7.05
2023-02-14T20:32:16.256Z,5.95
2023-02-14T20:34:45.677Z,6.70
2023-02-14T20:37:13.655Z,6.63
2023-02-14T20:39:40.788Z,6.82
2023-02-14T20:42:08.572Z,6.20
2023-02-14T20:44:38.867Z,6.75
2023-02-14T20:47:06.831Z,6.57
2023-02-14T20:49:36.736Z,6.28
2023-02-14T20:52:07.252Z,6.30
2023-02-14T20:54:34.615Z,7.15
2023-02-14T20:57:04.288Z,6.95
2023-02-14T20:59:34.073Z,6.50
2023-02-14T21:02:01.302Z,6.78
2023-02-14T21:04:31.274Z,6.25
2023-02-14T21:07:00.216Z,6.45
2023-02-14T21:09:30.460Z,6.13
2023-02-14T21:11:59.968Z,7.20
2023-02-14T21:14:30.206Z,7.10
2023-02-14T21:16:58.048Z,6.85
2023-02-14T21:19:26.792Z,7.25
2023-02-14T21:21:56.516Z,6.88
2023-02-14T21:24:24.360Z,7.25
2023-02-14T21:26:52.061Z,6.72
2023-02-14T21:29:19.603Z,6.47
2023-02-14T21:31:46.987Z,6.68
2023-02-14T21:34:16.076Z,7.28
2023-02-14T21:36:52.127Z,7.35
2023-02-14T21:39:25.622Z,7.32
2023-02-14T21:44:40.450Z,6.72
2023-02-14T21:47:07.970Z,7.05
2023-02-14T21:49:56.016Z,7.57
2023-02-14T21:52:23.311Z,6.85
2023-02-14T21:54:52.861Z,7.35
2023-02-14T21:57:22.346Z,6.45
2023-02-14T21:59:52.083Z,6.32
2023-02-14T22:02:20.117Z,6.78
2023-02-14T22:04:47.595Z,6.65
2023-02-14T22:07:17.379Z,6.97
2023-02-14T22:09:44.499Z,6.70
2023-02-14T22:12:11.933Z,7.18
2023-02-14T22:14:39.407Z,6.50
2023-02-14T22:17:08.980Z,6.32
2023-02-14T22:19:38.548Z,6.40
2023-02-14T22:22:07.048Z,7.18
2023-02-14T22:24:34.489Z,6.60
2023-02-14T22:27:01.619Z,6.90
2023-02-14T22:29:29.480Z,6.78
2023-02-14T22:31:56.705Z,6.93
2023-02-14T22:34:26.127Z,6.03
2023-02-14T22:36:53.435Z,6.80
2023-02-14T22:39:23.460Z,6.65
2023-02-14T22:41:53.085Z,7.18
2023-02-14T22:44:20.416Z,6.45
2023-02-14T22:46:47.575Z,6.65
2023-02-14T22:49:14.728Z,7.43
2023-02-14T22:51:42.445Z,6.57
2023-02-14T22:54:13.361Z,6.85
2023-02-14T22:56:43.407Z,7.43
2023-02-14T22:59:14.120Z,7.68
2023-02-14T23:01:43.504Z,7.45
2023-02-14T23:04:11.376Z,6.50
2023-02-14T23:06:39.328Z,7.03
2023-02-14T23:09:08.553Z,6.82
2023-02-14T23:11:37.848Z,7.22
2023-02-14T23:14:24.388Z,6.93
2023-02-14T23:17:10.695Z,6.28
2023-02-14T23:19:57.032Z,6.03
2023-02-14T23:22:27.765Z,6.85
2023-02-14T23:24:59.578Z,6.43
2023-02-14T23:27:30.846Z,6.85
2023-02-14T23:30:00.711Z,6.78
2023-02-14T23:32:28.305Z,7.25
2023-02-14T23:34:55.836Z,7.05
2023-02-14T23:37:23.041Z,7.45
2023-02-14T23:39:50.362Z,7.22
2023-02-14T23:42:18.272Z,6.68
2023-02-14T23:44:48.990Z,6.80
2023-02-14T23:47:19.002Z,7.20
2023-02-14T23:49:46.476Z,7.10
2023-02-14T23:52:14.716Z,7.03
2023-02-14T23:54:44.275Z,6.68
2023-02-14T23:57:11.882Z,7.00
2023-02-14T23:59:39.351Z,6.35
